Time,TemperatureF,DewpointF,PressureIn,WindDirection,WindDirectionDegrees,WindSpeedMPH,WindSpeedGustMPH,Humidity,HourlyPrecipIn,Conditions,Clouds,dailyrainin,SoftwareType,DateUTC
2013-02-22 00:00:00,35.0,26.0,30.27,North,-999,-999.0,-999.0,69,-99.99,,,-99.99,,2013-02-22 00:00:00,
2013-02-22 00:41:00,35.0,26.0,30.27,North,-999,-999.0,-999.0,69,-99.99,,,-99.99,,2013-02-22 00:41:00,
2013-02-22 00:51:00,35.0,26.0,30.27,North,-999,-999.0,-999.0,69,-99.99,,,-99.99,,2013-02-22 00:51:00,
2013-02-22 01:00:00,37.0,26.0,30.22,North,-999,-999.0,-999.0,65,-99.99,,,-99.99,,2013-02-22 01:00:00,
2013-02-22 01:41:00,37.0,26.0,30.22,North,-999,-999.0,-999.0,65,-99.99,,,-99.99,,2013-02-22 01:41:00,
2013-02-22 01:51:00,37.0,26.0,30.22,North,-999,-999.0,-999.0,65,-99.99,,,-99.99,,2013-02-22 01:51:00,
2013-02-22 02:00:00,36.0,26.0,30.24,North,-999,-999.0,-999.0,66,-99.99,,,-99.99,,2013-02-22 02:00:00,
2013-02-22 02:31:00,36.0,26.0,30.24,North,-999,-999.0,-999.0,66,-99.99,,,-99.99,,2013-02-22 02:31:00,
2013-02-22 02:41:00,36.0,26.0,30.24,North,-999,-999.0,-999.0,66,-99.99,,,-99.99,,2013-02-22 02:41:00,
2013-02-22 02:52:00,36.0,26.0,30.24,North,-999,-999.0,-999.0,66,-99.99,,,-99.99,,2013-02-22 02:52:00,
2013-02-22 03:00:00,36.0,26.0,30.24,North,-999,-999.0,-999.0,66,-99.99,,,-99.99,,2013-02-22 03:00:00,
2013-02-22 03:41:00,36.0,26.0,30.24,North,-999,-999.0,-999.0,66,-99.99,,,-99.99,,2013-02-22 03:41:00,
2013-02-22 03:51:00,36.0,26.0,30.24,North,-999,-999.0,-999.0,66,-99.99,,,-99.99,,2013-02-22 03:51:00,
2013-02-22 04:00:00,36.0,25.0,30.19,North,-999,-999.0,-999.0,64,-99.99,,,-99.99,,2013-02-22 04:00:00,
2013-02-22 04:41:00,36.0,25.0,30.19,North,-999,-999.0,-999.0,64,-99.99,,,-99.99,,2013-02-22 04:41:00,
2013-02-22 04:51:00,36.0,25.0,30.19,North,-999,-999.0,-999.0,64,-99.99,,,-99.99,,2013-02-22 04:51:00,
2013-02-22 05:00:00,35.0,23.0,30.19,North,-999,-999.0,-999.0,60,-99.99,,,-99.99,,2013-02-22 05:00:00,
2013-02-22 05:41:00,35.0,23.0,30.19,North,-999,-999.0,-999.0,60,-99.99,,,-99.99,,2013-02-22 05:41:00,
2013-02-22 05:52:00,35.0,23.0,30.19,North,-999,-999.0,-999.0,60,-99.99,,,-99.99,,2013-02-22 05:52:00,
2013-02-22 06:00:00,34.0,23.0,30.25,North,-999,-999.0,-999.0,65,-99.99,,,-99.99,,2013-02-22 06:00:00,
2013-02-22 06:41:00,34.0,23.0,30.25,North,-999,-999.0,-999.0,65,-99.99,,,-99.99,,2013-02-22 06:41:00,
2013-02-22 06:51:00,34.0,23.0,30.25,North,-999,-999.0,-999.0,65,-99.99,,,-99.99,,2013-02-22 06:51:00,
2013-02-22 07:00:00,33.0,22.0,30.27,North,-999,-999.0,-999.0,63,-99.99,,,-99.99,,2013-02-22 07:00:00,
2013-02-22 07:42:00,33.0,22.0,30.27,North,-999,-999.0,-999.0,63,-99.99,,,-99.99,,2013-02-22 07:42:00,
2013-02-22 07:51:00,33.0,22.0,30.27,North,-999,-999.0,-999.0,63,-99.99,,,-99.99,,2013-02-22 07:51:00,
2013-02-22 08:00:00,34.0,23.0,30.28,North,-999,-999.0,-999.0,63,-99.99,,,-99.99,,2013-02-22 08:00:00,
2013-02-22 08:41:00,34.0,23.0,30.28,North,-999,-999.0,-999.0,63,-99.99,,,-99.99,,2013-02-22 08:41:00,
2013-02-22 08:51:00,34.0,23.0,30.28,North,-999,-999.0,-999.0,63,-99.99,,,-99.99,,2013-02-22 08:51:00,
2013-02-22 09:00:00,36.0,26.0,30.25,North,-999,-999.0,-999.0,64,-99.99,,,-99.99,,2013-02-22 09:00:00,
2013-02-22 09:31:00,36.0,26.0,30.25,North,-999,-999.0,-999.0,64,-99.99,,,-99.99,,2013-02-22 09:31:00,
2013-02-22 09:41:00,36.0,26.0,30.25,North,-999,-999.0,-999.0,64,-99.99,,,-99.99,,2013-02-22 09:41:00,
2013-02-22 09:51:00,36.0,26.0,30.25,North,-999,-999.0,-999.0,64,-99.99,,,-99.99,,2013-02-22 09:51:00,
2013-02-22 10:00:00,36.0,26.0,30.28,North,-999,-999.0,-999.0,64,-99.99,,,-99.99,,2013-02-22 10:00:00,
2013-02-22 10:42:00,36.0,26.0,30.28,North,-999,-999.0,-999.0,64,-99.99,,,-99.99,,2013-02-22 10:42:00,
2013-02-22 10:51:00,36.0,26.0,30.28,North,-999,-999.0,-999.0,64,-99.99,,,-99.99,,2013-02-22 10:51:00,
2013-02-22 11:00:00,37.0,25.0,30.28,North,-999,-999.0,-999.0,62,-99.99,,,-99.99,,2013-02-22 11:00:00,
2013-02-22 11:42:00,37.0,25.0,30.28,North,-999,-999.0,-999.0,62,-99.99,,,-99.99,,2013-02-22 11:42:00,
2013-02-22 11:52:00,37.0,25.0,30.28,North,-999,-999.0,-999.0,62,-99.99,,,-99.99,,2013-02-22 11:52:00,
2013-02-22 12:00:00,36.0,24.0,30.26,North,-999,-999.0,-999.0,59,-99.99,,,-99.99,,2013-02-22 12:00:00,
2013-02-22 12:42:00,36.0,24.0,30.26,North,-999,-999.0,-999.0,59,-99.99,,,-99.99,,2013-02-22 12:42:00,
2013-02-22 12:51:00,36.0,24.0,30.26,North,-999,-999.0,-999.0,59,-99.99,,,-99.99,,2013-02-22 12:51:00,
2013-02-22 13:00:00,37.0,25.0,30.26,North,-999,-999.0,-999.0,60,-99.99,,,-99.99,,2013-02-22 13:00:00,
2013-02-22 13:41:00,37.0,25.0,30.26,North,-999,-999.0,-999.0,60,-99.99,,,-99.99,,2013-02-22 13:41:00,
2013-02-22 13:51:00,37.0,25.0,30.26,North,-999,-999.0,-999.0,60,-99.99,,,-99.99,,2013-02-22 13:51:00,
2013-02-22 14:00:00,37.0,22.0,30.29,North,-999,-999.0,-999.0,55,-99.99,,,-99.99,,2013-02-22 14:00:00,
2013-02-22 14:41:00,37.0,22.0,30.29,North,-999,-999.0,-999.0,55,-99.99,,,-99.99,,2013-02-22 14:41:00,
2013-02-22 14:52:00,37.0,22.0,30.29,North,-999,-999.0,-999.0,55,-99.99,,,-99.99,,2013-02-22 14:52:00,
2013-02-22 15:00:00,37.0,22.0,30.29,North,-999,-999.0,-999.0,54,-99.99,,,-99.99,,2013-02-22 15:00:00,
2013-02-22 15:41:00,37.0,22.0,30.29,North,-999,-999.0,-999.0,54,-99.99,,,-99.99,,2013-02-22 15:41:00,
2013-02-22 15:51:00,37.0,22.0,30.29,North,-999,-999.0,-999.0,54,-99.99,,,-99.99,,2013-02-22 15:51:00,
2013-02-22 16:00:00,37.0,22.0,30.29,North,-999,-999.0,-999.0,55,-99.99,,,-99.99,,2013-02-22 16:00:00,
2013-02-22 16:41:00,37.0,22.0,30.29,North,-999,-999.0,-999.0,55,-99.99,,,-99.99,,2013-02-22 16:41:00,
2013-02-22 16:52:00,37.0,22.0,30.29,North,-999,-999.0,-999.0,55,-99.99,,,-99.99,,2013-02-22 16:52:00,
2013-02-22 17:00:00,37.0,25.0,30.28,North,-999,-999.0,-999.0,61,-99.99,,,-99.99,,2013-02-22 17:00:00,
2013-02-22 17:41:00,37.0,25.0,30.28,North,-999,-999.0,-999.0,61,-99.99,,,-99.99,,2013-02-22 17:41:00,
2013-02-22 17:52:00,37.0,25.0,30.28,North,-999,-999.0,-999.0,61,-99.99,,,-99.99,,2013-02-22 17:52:00,
2013-02-22 18:00:00,38.0,27.0,30.29,North,-999,-999.0,-999.0,64,-99.99,,,-99.99,,2013-02-22 18:00:00,
2013-02-22 18:31:00,38.0,27.0,30.29,North,-999,-999.0,-999.0,64,-99.99,,,-99.99,,2013-02-22 18:31:00,
2013-02-22 18:41:00,38.0,27.0,30.29,North,-999,-999.0,-999.0,64,-99.99,,,-99.99,,2013-02-22 18:41:00,
2013-02-22 18:51:00,38.0,27.0,30.29,North,-999,-999.0,-999.0,64,-99.99,,,-99.99,,2013-02-22 18:51:00,
2013-02-22 20:00:00,38.0,24.0,30.29,North,-999,-999.0,-999.0,57,-99.99,,,-99.99,,2013-02-22 20:00:00,
2013-02-22 20:41:00,38.0,24.0,30.29,North,-999,-999.0,-999.0,57,-99.99,,,-99.99,,2013-02-22 20:41:00,
2013-02-22 20:51:00,38.0,24.0,30.29,North,-999,-999.0,-999.0,57,-99.99,,,-99.99,,2013-02-22 20:51:00,
2013-02-22 21:00:00,37.0,23.0,30.28,North,-999,-999.0,-999.0,55,-99.99,,,-99.99,,2013-02-22 21:00:00,
2013-02-22 21:41:00,37.0,23.0,30.28,North,-999,-999.0,-999.0,55,-99.99,,,-99.99,,2013-02-22 21:41:00,
2013-02-22 21:51:00,37.0,23.0,30.28,North,-999,-999.0,-999.0,55,-99.99,,,-99.99,,2013-02-22 21:51:00,
2013-02-22 22:00:00,36.0,23.0,30.31,North,-999,-999.0,-999.0,60,-99.99,,,-99.99,,2013-02-22 22:00:00,
2013-02-22 22:41:00,36.0,23.0,30.31,North,-999,-999.0,-999.0,60,-99.99,,,-99.99,,2013-02-22 22:41:00,
2013-02-22 22:51:00,36.0,23.0,30.31,North,-999,-999.0,-999.0,60,-99.99,,,-99.99,,2013-02-22 22:51:00,
2013-02-22 23:00:00,35.0,24.0,30.31,North,-999,-999.0,-999.0,62,-99.99,,,-99.99,,2013-02-22 23:00:00,
2013-02-22 23:41:00,35.0,24.0,30.31,North,-999,-999.0,-999.0,62,-99.99,,,-99.99,,2013-02-22 23:41:00,
2013-02-22 23:52:00,35.0,24.0,30.31,North,-999,-999.0,-999.0,62,-99.99,,,-99.99,,2013-02-22 23:52:00,